Startpagina
METAR-TAF:

METAR-TAF

Vliegvelden :

Hahn, Duitsland

Flughafen Frankfurt-Hahn

breedte: 49-57N, lengte: 007-16E, hoogte: 491 m

Actueel weer

Dit bericht is 39 minuten geleden gemaakt, om 09:50 UTC
Wind 6 kt uit het zuidoosten
Temperatuur 13°C
Vochtigheid 72%
Druk 1021 hPa
Zicht 10 km of meer
geen wolken onder 1500 m en geen cumulonimbus

METAR: EDFH 210950Z 14006KT CAVOK 13/08 Q1021

Tijdstip: 12:29 (10:29 UTC)

Verwachting

Dit bericht is 5 uur en het 29 minuten geleden gemaakt, om 05:00 UTC
Verwachting geldig van 21 om 06 UTC tot 22 om 06 UTC
Wind 5 kt uit het zuidzuidoosten
Zicht 10 km of meer
geen wolken onder 1500 m en geen cumulonimbus
Kans 30% :
Tijdelijke
van 21 om 06 UTC tot 21 om 09 UTC
Zicht: 0400 m
Gebroken wolken op 100 ft
mist

TAF: EDFH 210500Z 2106/2206 15005KT CAVOK PROB30 TEMPO 2106/2109 0400 FG BKN001

Waarnemingen en weersverwachtingen van meer dan 4000 vliegvelden (METAR en TAF).

De beschikbare stations zijn de gele en rode punten op de kaart.

Ga met uw muis naar het station om de naam te zien.

Klik dan om waarnemingen en weersverwachtingen te zien.

kaart wijzigen: klik op de groene knoppen met een zwart kruis om in te zoomen, op de groene knop met een streepje om uit te zoomen of op de groene pijlen voor aangrenzende kaarten.


METAR-TAF: